Time;durP1;ratioP1;P1;durP2;ratioP2;P2;SDS_P1;SDS_P2;PMS_P1;PMS_P2;Temp;Humidity;BMP_temperature;BMP_pressure;BME280_temperature;BME280_humidity;BME280_pressure;Samples;Min_cycle;Max_cycle;Signal;HPM_P1;HPM_P2
2022/08/27 00:02:14;;;;;;;5.22;2.60;;;17.50;60.10;;;;;;4992939;28;20078;-67
2022/08/27 00:04:40;;;;;;;3.47;2.22;;;17.50;60.10;;;;;;4977470;28;20046;-67
2022/08/27 00:07:06;;;;;;;4.07;2.03;;;17.50;60.10;;;;;;4991811;28;20042;-67
2022/08/27 00:09:32;;;;;;;2.80;1.85;;;17.50;60.10;;;;;;4982825;28;20069;-67
2022/08/27 00:11:59;;;;;;;3.50;2.08;;;17.50;60.10;;;;;;4976934;28;20061;-67
2022/08/27 00:14:26;;;;;;;4.47;2.35;;;17.50;60.10;;;;;;4980791;28;20116;-67
2022/08/27 00:16:52;;;;;;;4.32;2.28;;;17.40;60.00;;;;;;4976936;28;20042;-67
2022/08/27 00:19:18;;;;;;;5.60;2.50;;;17.40;60.00;;;;;;4986303;28;20054;-67
2022/08/27 00:21:43;;;;;;;6.45;2.45;;;17.40;60.00;;;;;;4973072;28;20042;-67
2022/08/27 00:24:11;;;;;;;4.18;2.20;;;17.40;60.10;;;;;;4976120;28;20077;-67
2022/08/27 00:26:36;;;;;;;2.70;1.90;;;17.40;60.10;;;;;;4978882;28;20038;-67
2022/08/27 00:29:02;;;;;;;4.05;2.17;;;17.40;60.10;;;;;;4980781;28;20085;-67
2022/08/27 00:31:28;;;;;;;3.78;2.55;;;17.40;60.10;;;;;;4973843;28;20043;-67
2022/08/27 00:33:54;;;;;;;6.28;2.10;;;17.40;60.10;;;;;;4983920;28;20579;-67
2022/08/27 00:36:20;;;;;;;4.13;2.30;;;17.30;60.10;;;;;;4973199;28;20135;-67
2022/08/27 00:38:46;;;;;;;3.75;2.42;;;17.30;60.10;;;;;;4982559;28;20035;-67
2022/08/27 00:41:12;;;;;;;5.28;2.63;;;17.30;60.10;;;;;;4981118;28;20046;-67
2022/08/27 00:43:54;;;;;;;3.58;2.20;;;17.30;60.10;;;;;;4978480;28;20062;-67
2022/08/27 00:46:46;;;;;;;3.92;2.20;;;17.30;60.10;;;;;;4992034;28;20034;-67
2022/08/27 00:49:20;;;;;;;5.18;2.60;;;17.30;60.10;;;;;;4991986;28;20045;-67
2022/08/27 00:51:54;;;;;;;3.72;1.85;;;17.30;60.20;;;;;;4993818;28;20050;-67
2022/08/27 00:54:21;;;;;;;5.65;2.55;;;17.20;60.10;;;;;;4983950;28;20046;-67
2022/08/27 00:56:47;;;;;;;4.07;2.25;;;17.20;60.20;;;;;;4992527;28;20406;-67
2022/08/27 00:59:15;;;;;;;4.85;2.45;;;17.20;60.20;;;;;;4984562;28;20049;-67
2022/08/27 01:04:30;;;;;;;5.13;2.50;;;17.10;60.20;;;;;;4983871;28;20174;-67
2022/08/27 01:06:57;;;;;;;3.03;2.22;;;17.10;60.20;;;;;;4977192;28;20038;-67
2022/08/27 01:09:23;;;;;;;2.95;1.92;;;17.10;60.20;;;;;;4982925;28;20125;-67
2022/08/27 01:11:49;;;;;;;7.60;2.88;;;17.10;60.20;;;;;;4973967;28;20051;-67
2022/08/27 01:14:16;;;;;;;3.90;2.17;;;17.10;60.30;;;;;;4957595;28;20043;-67
2022/08/27 01:16:49;;;;;;;3.55;2.00;;;17.10;60.30;;;;;;4989077;28;20078;-67
2022/08/27 01:19:41;;;;;;;4.38;2.72;;;17.10;60.30;;;;;;4979531;28;20128;-67
2022/08/27 01:22:52;;;;;;;3.65;2.25;;;17.10;60.20;;;;;;4991597;28;20466;-67
2022/08/27 01:25:20;;;;;;;4.13;2.22;;;17.00;60.20;;;;;;4971599;28;20050;-67
2022/08/27 01:27:46;;;;;;;3.38;2.30;;;17.00;60.40;;;;;;4986050;28;20049;-67
2022/08/27 01:30:17;;;;;;;3.53;2.53;;;17.00;60.40;;;;;;4991855;28;20506;-67
2022/08/27 01:32:44;;;;;;;4.57;2.15;;;17.00;60.40;;;;;;4980722;28;20054;-67
2022/08/27 01:35:13;;;;;;;3.75;2.33;;;17.00;60.40;;;;;;4976043;28;20121;-67
2022/08/27 01:37:40;;;;;;;2.92;2.03;;;16.90;60.40;;;;;;4980080;28;20486;-67
2022/08/27 01:40:07;;;;;;;4.70;2.33;;;16.90;60.40;;;;;;4982248;28;20631;-67
2022/08/27 01:42:37;;;;;;;5.65;2.78;;;16.90;60.40;;;;;;4974327;28;20078;-67
2022/08/27 01:45:11;;;;;;;4.47;2.47;;;16.90;60.50;;;;;;4984232;28;20117;-67
2022/08/27 01:47:37;;;;;;;4.95;2.17;;;16.90;60.50;;;;;;4993303;28;20041;-67
2022/08/27 01:50:11;;;;;;;3.15;2.05;;;16.90;60.50;;;;;;4991622;28;20050;-67
2022/08/27 01:52:37;;;;;;;3.63;2.22;;;16.80;60.40;;;;;;4979469;28;20046;-67
2022/08/27 01:55:06;;;;;;;3.42;2.20;;;16.80;60.40;;;;;;4978095;28;20517;-67
2022/08/27 01:57:34;;;;;;;4.40;2.90;;;16.80;60.50;;;;;;4972779;28;20054;-67
2022/08/27 02:00:01;;;;;;;5.47;2.45;;;16.80;60.50;;;;;;4979628;28;20445;-67
2022/08/27 02:02:27;;;;;;;5.25;2.80;;;16.80;60.50;;;;;;4995092;28;20151;-67
2022/08/27 02:04:53;;;;;;;4.28;2.22;;;16.80;60.50;;;;;;4970643;28;20494;-67
2022/08/27 02:07:19;;;;;;;3.70;2.15;;;16.80;60.50;;;;;;4995503;28;20039;-67
2022/08/27 02:09:44;;;;;;;4.65;2.33;;;16.80;60.50;;;;;;4995950;28;20089;-67
2022/08/27 02:12:10;;;;;;;3.95;2.60;;;16.80;60.50;;;;;;4995907;28;20053;-67
2022/08/27 02:14:36;;;;;;;4.57;2.38;;;16.70;60.40;;;;;;4986088;28;20125;-67
2022/08/27 02:17:01;;;;;;;5.22;2.92;;;16.70;60.40;;;;;;4991854;28;20043;-67
2022/08/27 02:19:27;;;;;;;3.70;2.38;;;16.70;60.40;;;;;;4975846;28;20554;-67
2022/08/27 02:21:53;;;;;;;4.93;2.35;;;16.70;60.40;;;;;;4994310;28;20121;-67
2022/08/27 02:24:19;;;;;;;4.57;2.40;;;16.80;60.40;;;;;;4971342;28;20039;-67
2022/08/27 02:26:44;;;;;;;3.35;2.17;;;16.70;60.40;;;;;;4991342;28;20034;-67
2022/08/27 02:29:10;;;;;;;4.78;2.30;;;16.70;60.30;;;;;;4978170;28;20100;-67
2022/08/27 02:31:36;;;;;;;3.80;2.55;;;16.70;60.20;;;;;;4994663;28;20510;-67
2022/08/27 02:34:02;;;;;;;4.50;2.08;;;16.70;60.20;;;;;;4989853;28;20051;-67
2022/08/27 02:36:28;;;;;;;3.30;2.33;;;16.70;60.10;;;;;;4977770;28;20113;-67
2022/08/27 02:38:55;;;;;;;3.85;2.15;;;16.70;60.10;;;;;;4976815;28;20038;-67
2022/08/27 02:41:21;;;;;;;3.30;1.70;;;16.70;60.10;;;;;;4986303;28;20054;-67
2022/08/27 02:43:47;;;;;;;5.28;3.03;;;16.60;60.00;;;;;;4989029;28;20047;-67
2022/08/27 02:46:13;;;;;;;4.55;2.83;;;16.60;60.40;;;;;;4986748;28;20059;-67
2022/08/27 02:48:39;;;;;;;3.20;2.22;;;16.60;59.90;;;;;;4975359;28;20094;-67
2022/08/27 02:51:06;;;;;;;4.88;2.20;;;16.60;59.90;;;;;;4976673;28;20078;-64
2022/08/27 02:53:34;;;;;;;4.97;2.22;;;16.60;59.90;;;;;;4977409;28;20068;-64
2022/08/27 02:55:59;;;;;;;3.30;2.25;;;16.60;60.00;;;;;;4981098;28;20045;-64
2022/08/27 02:58:25;;;;;;;3.97;2.50;;;16.50;59.90;;;;;;4995106;28;20482;-64
2022/08/27 03:00:51;;;;;;;3.38;1.83;;;16.50;59.90;;;;;;4977942;28;20578;-64
2022/08/27 03:03:17;;;;;;;2.45;1.90;;;16.50;59.90;;;;;;4993821;28;20043;-64
2022/08/27 03:05:42;;;;;;;3.70;2.47;;;16.50;59.90;;;;;;4972855;28;20038;-64
2022/08/27 03:08:08;;;;;;;4.22;1.90;;;16.50;59.90;;;;;;4994318;28;20041;-64
2022/08/27 03:10:34;;;;;;;4.68;2.63;;;16.50;59.80;;;;;;4994017;28;20508;-64
2022/08/27 03:13:00;;;;;;;4.20;2.20;;;16.50;59.70;;;;;;4993275;28;20053;-66
2022/08/27 03:15:27;;;;;;;3.78;2.20;;;16.40;59.70;;;;;;4979196;28;20483;-67
2022/08/27 03:20:39;;;;;;;4.05;2.45;;;16.40;59.80;;;;;;4974727;28;20098;-67
2022/08/27 03:23:06;;;;;;;3.58;2.45;;;16.40;59.80;;;;;;4975329;28;20049;-67
2022/08/27 03:25:32;;;;;;;3.40;1.83;;;16.40;59.80;;;;;;5010134;28;20046;-67
2022/08/27 03:27:57;;;;;;;3.10;2.15;;;16.40;59.90;;;;;;4982324;28;20058;-67
2022/08/27 03:30:24;;;;;;;3.80;2.17;;;16.40;59.90;;;;;;4983914;28;20043;-67
2022/08/27 03:32:50;;;;;;;3.63;2.10;;;16.40;59.90;;;;;;4973871;28;20046;-67
2022/08/27 03:35:18;;;;;;;3.17;2.40;;;16.30;59.90;;;;;;4994385;28;20513;-67
2022/08/27 03:37:44;;;;;;;2.90;2.00;;;16.30;59.90;;;;;;4978837;28;20091;-66
2022/08/27 03:40:10;;;;;;;3.75;1.88;;;16.30;59.90;;;;;;4975604;28;20090;-67
2022/08/27 03:42:37;;;;;;;3.25;2.05;;;16.30;59.90;;;;;;4987251;28;20490;-67
2022/08/27 03:45:04;;;;;;;4.35;2.30;;;16.20;59.80;;;;;;4989209;28;20494;-67
2022/08/27 03:47:31;;;;;;;2.67;1.95;;;16.20;59.90;;;;;;4985705;28;20053;-67
2022/08/27 03:49:58;;;;;;;4.30;2.15;;;16.20;59.90;;;;;;4979229;28;20051;-67
2022/08/27 03:52:24;;;;;;;3.10;1.90;;;16.20;59.80;;;;;;5009958;28;20060;-66
2022/08/27 03:54:50;;;;;;;3.55;2.20;;;16.20;59.90;;;;;;4992561;28;20053;-66
2022/08/27 03:57:16;;;;;;;3.88;2.10;;;16.20;59.90;;;;;;4993988;28;20402;-66
2022/08/27 03:59:41;;;;;;;2.75;1.65;;;16.20;60.00;;;;;;4994096;28;20050;-66
2022/08/27 04:02:07;;;;;;;2.67;2.05;;;16.10;59.90;;;;;;4986670;28;20487;-66
2022/08/27 04:04:34;;;;;;;2.67;1.88;;;16.10;60.00;;;;;;4980723;28;20143;-66
2022/08/27 04:07:00;;;;;;;3.05;2.13;;;16.10;60.00;;;;;;4992132;28;20483;-67
2022/08/27 04:09:26;;;;;;;3.35;2.03;;;16.20;60.20;;;;;;4994420;28;20053;-67
2022/08/27 04:11:51;;;;;;;4.15;2.38;;;16.10;60.20;;;;;;4990663;28;20038;-64
2022/08/27 04:14:18;;;;;;;4.25;2.53;;;16.10;60.20;;;;;;4978052;28;20043;-64
2022/08/27 04:16:43;;;;;;;4.07;2.05;;;16.10;60.30;;;;;;4992701;28;20046;-64
2022/08/27 04:19:11;;;;;;;4.72;2.70;;;16.10;60.40;;;;;;4973969;28;20067;-64
2022/08/27 04:21:37;;;;;;;3.38;2.33;;;16.10;60.50;;;;;;4982709;28;20472;-64
2022/08/27 04:24:03;;;;;;;4.15;2.53;;;16.10;60.60;;;;;;4981406;28;20129;-64
2022/08/27 04:26:29;;;;;;;3.13;2.25;;;16.10;60.60;;;;;;4983319;28;20042;-64
2022/08/27 04:28:57;;;;;;;5.35;3.13;;;16.10;60.60;;;;;;4983225;28;20042;-64
2022/08/27 04:31:24;;;;;;;4.65;2.60;;;16.10;60.60;;;;;;4973301;28;20047;-64
2022/08/27 04:33:50;;;;;;;2.78;2.30;;;16.10;60.70;;;;;;5005960;28;20042;-65
2022/08/27 04:36:16;;;;;;;3.70;2.60;;;16.10;60.70;;;;;;4992280;28;20409;-64
2022/08/27 04:38:42;;;;;;;4.32;2.70;;;16.10;60.70;;;;;;4988261;28;20046;-64
2022/08/27 04:41:18;;;;;;;3.72;2.22;;;16.10;60.70;;;;;;4976091;28;20491;-64
2022/08/27 04:43:45;;;;;;;4.57;2.72;;;16.10;60.70;;;;;;4985922;28;20042;-64
2022/08/27 04:46:11;;;;;;;3.90;2.13;;;16.10;60.70;;;;;;4991553;28;20050;-64
2022/08/27 04:48:37;;;;;;;5.63;2.60;;;16.00;60.60;;;;;;4992515;28;20053;-64
2022/08/27 04:51:03;;;;;;;5.90;2.67;;;16.00;60.60;;;;;;4992554;28;20502;-64
2022/08/27 04:53:29;;;;;;;5.13;2.30;;;16.10;60.70;;;;;;4982487;28;20049;-64
2022/08/27 04:55:56;;;;;;;5.30;3.17;;;16.10;60.70;;;;;;4989411;28;20038;-64
2022/08/27 04:58:25;;;;;;;4.47;2.85;;;16.00;60.60;;;;;;4983948;28;20584;-64
2022/08/27 05:00:53;;;;;;;6.22;2.83;;;16.00;61.00;;;;;;4979572;28;20085;-64
2022/08/27 05:03:25;;;;;;;4.30;2.85;;;16.00;60.50;;;;;;4992100;28;20050;-64
2022/08/27 05:05:52;;;;;;;4.78;3.05;;;16.00;60.50;;;;;;4973773;28;20395;-64
2022/08/27 05:08:18;;;;;;;3.65;2.33;;;16.00;61.00;;;;;;4979603;28;20556;-64
2022/08/27 05:10:49;;;;;;;3.88;2.40;;;16.00;60.60;;;;;;4975840;28;20065;-64
2022/08/27 05:13:20;;;;;;;3.17;2.28;;;16.00;60.60;;;;;;4991449;28;20038;-64
2022/08/27 05:15:46;;;;;;;4.35;3.28;;;16.00;60.50;;;;;;4982822;28;20046;-64
2022/08/27 05:18:12;;;;;;;3.90;2.88;;;16.00;60.50;;;;;;4987855;28;20486;-64
2022/08/27 05:20:46;;;;;;;6.25;3.00;;;16.00;60.40;;;;;;4980057;28;20085;-64
2022/08/27 05:23:13;;;;;;;3.45;2.65;;;16.00;60.40;;;;;;4987412;28;20398;-64
2022/08/27 05:25:41;;;;;;;3.42;2.67;;;15.90;60.40;;;;;;4990784;28;20049;-64
2022/08/27 05:28:07;;;;;;;4.72;3.00;;;15.90;60.40;;;;;;4988489;28;20043;-64
2022/08/27 05:30:39;;;;;;;5.25;3.50;;;16.00;60.50;;;;;;4984393;28;20046;-64
2022/08/27 05:33:06;;;;;;;3.72;2.55;;;15.90;60.50;;;;;;4991818;28;20122;-64
2022/08/27 05:35:38;;;;;;;4.13;2.58;;;15.90;60.60;;;;;;4976631;28;20113;-64
2022/08/27 05:38:04;;;;;;;4.50;3.00;;;16.00;60.70;;;;;;5010425;28;20108;-66
2022/08/27 05:40:29;;;;;;;5.60;2.72;;;15.90;60.80;;;;;;4996124;28;20294;-66
2022/08/27 05:42:55;;;;;;;5.88;3.03;;;15.90;60.90;;;;;;4990363;28;20406;-67
2022/08/27 05:45:21;;;;;;;4.47;2.85;;;16.00;61.10;;;;;;4978116;28;20414;-67
2022/08/27 05:47:47;;;;;;;5.30;3.60;;;16.00;61.20;;;;;;5009046;28;20039;-67
2022/08/27 05:50:12;;;;;;;5.63;2.75;;;16.00;61.40;;;;;;4995851;28;20046;-67
2022/08/27 05:52:38;;;;;;;5.65;3.33;;;16.00;61.60;;;;;;4972027;28;20042;-64
2022/08/27 05:55:04;;;;;;;5.03;3.63;;;16.00;61.80;;;;;;5011434;28;20042;-64
2022/08/27 05:57:30;;;;;;;6.60;4.28;;;16.00;62.50;;;;;;4979552;28;20153;-64
2022/08/27 06:02:39;;;;;;;7.53;3.95;;;16.10;63.80;;;;;;4976038;28;20050;-65
2022/08/27 06:05:05;;;;;;;8.15;4.10;;;16.40;64.60;;;;;;4987605;28;20042;-64
2022/08/27 06:07:33;;;;;;;6.63;4.30;;;16.70;64.20;;;;;;4996694;28;20050;-64
2022/08/27 06:09:59;;;;;;;7.30;3.92;;;17.00;64.20;;;;;;4981370;28;20043;-65
2022/08/27 06:12:25;;;;;;;5.65;3.47;;;17.40;64.00;;;;;;4977169;28;20106;-64
2022/08/27 06:14:51;;;;;;;5.93;3.75;;;17.80;63.70;;;;;;4990930;28;20050;-64
2022/08/27 06:17:17;;;;;;;4.88;3.40;;;18.30;63.10;;;;;;4995384;28;20105;-64
2022/08/27 06:19:44;;;;;;;4.60;3.20;;;18.90;62.60;;;;;;4990329;28;20042;-64
2022/08/27 06:22:10;;;;;;;6.28;3.25;;;19.40;61.60;;;;;;4994618;28;20498;-65
2022/08/27 06:24:38;;;;;;;5.85;3.38;;;20.00;60.60;;;;;;4987213;28;20666;-65
2022/08/27 06:27:04;;;;;;;6.18;3.38;;;20.50;59.50;;;;;;4975847;28;20512;-64
2022/08/27 06:29:30;;;;;;;4.93;2.75;;;20.70;58.80;;;;;;4988374;28;20118;-64
2022/08/27 06:31:55;;;;;;;5.72;2.63;;;20.90;58.20;;;;;;4975712;28;20057;-64
2022/08/27 06:34:21;;;;;;;5.35;2.20;;;21.00;57.70;;;;;;4981272;28;20038;-65
2022/08/27 06:36:47;;;;;;;6.72;2.60;;;21.00;57.50;;;;;;4987559;28;20498;-64
2022/08/27 06:39:14;;;;;;;7.35;3.00;;;21.00;57.00;;;;;;4980874;28;20047;-64
2022/08/27 06:41:41;;;;;;;3.63;1.83;;;21.10;56.70;;;;;;5011119;28;20046;-65
2022/08/27 06:44:07;;;;;;;4.32;1.85;;;21.00;56.60;;;;;;4991648;28;20038;-64
2022/08/27 06:46:33;;;;;;;4.13;1.90;;;21.00;57.00;;;;;;4976445;28;20510;-64
2022/08/27 06:49:00;;;;;;;3.33;1.85;;;21.00;56.60;;;;;;4991290;28;20046;-65
2022/08/27 06:51:31;;;;;;;4.43;2.13;;;21.00;56.80;;;;;;4975567;28;20043;-65
2022/08/27 06:54:01;;;;;;;5.20;1.98;;;21.00;56.70;;;;;;4990153;28;20494;-65
2022/08/27 06:56:27;;;;;;;5.38;1.70;;;20.90;56.60;;;;;;4986713;28;20090;-66
2022/08/27 06:58:58;;;;;;;3.92;1.67;;;20.90;56.50;;;;;;4978224;28;20055;-66
2022/08/27 07:01:27;;;;;;;5.20;2.28;;;20.80;56.50;;;;;;4978916;28;20494;-65
2022/08/27 07:04:02;;;;;;;6.07;1.95;;;20.80;56.90;;;;;;4994184;28;20109;-65
2022/08/27 07:06:30;;;;;;;5.13;2.28;;;20.80;57.10;;;;;;4993983;28;20133;-65
2022/08/27 07:08:56;;;;;;;3.20;1.67;;;20.80;57.60;;;;;;4993625;28;20069;-65
2022/08/27 07:11:22;;;;;;;4.43;1.98;;;20.90;57.60;;;;;;4994560;28;20046;-65
2022/08/27 07:13:49;;;;;;;5.75;1.85;;;21.10;57.30;;;;;;4993943;28;20046;-66
2022/08/27 07:16:21;;;;;;;6.68;2.20;;;21.30;56.90;;;;;;4993445;28;20494;-65
2022/08/27 07:18:49;;;;;;;4.85;1.77;;;21.50;56.70;;;;;;4988447;28;20038;-65
2022/08/27 07:21:18;;;;;;;5.05;2.08;;;21.80;56.50;;;;;;5007443;28;20051;-66
2022/08/27 07:23:45;;;;;;;8.27;2.28;;;22.10;56.10;;;;;;4992156;28;20137;-66
2022/08/27 07:26:13;;;;;;;5.95;1.92;;;22.30;55.60;;;;;;4979169;28;20089;-66
2022/08/27 07:28:39;;;;;;;3.65;1.40;;;22.50;54.80;;;;;;4974851;28;20043;-66
2022/08/27 07:31:10;;;;;;;5.55;1.75;;;22.70;54.60;;;;;;4987903;28;20046;-66
2022/08/27 07:33:39;;;;;;;5.53;1.25;;;22.80;54.10;;;;;;4980598;28;20047;-66
2022/08/27 07:36:06;;;;;;;5.53;1.50;;;22.90;53.90;;;;;;4991455;28;20517;-66
2022/08/27 07:38:33;;;;;;;4.10;1.73;;;23.10;53.50;;;;;;4993728;28;20112;-66
2022/08/27 07:40:59;;;;;;;4.95;1.70;;;23.20;53.40;;;;;;4976662;28;20490;-66
2022/08/27 07:46:09;;;;;;;4.72;1.25;;;23.60;52.10;;;;;;4974187;28;20070;-66
2022/08/27 07:48:35;;;;;;;3.55;1.58;;;23.60;51.60;;;;;;4974321;28;20042;-66
2022/08/27 07:51:04;;;;;;;6.07;1.45;;;23.60;51.70;;;;;;4987619;28;20046;-66
2022/08/27 07:53:31;;;;;;;4.38;1.10;;;23.70;51.60;;;;;;4985455;28;20046;-66
2022/08/27 07:56:07;;;;;;;7.13;1.90;;;23.70;50.90;;;;;;4974591;28;20471;-66
2022/08/27 07:58:34;;;;;;;3.97;1.30;;;23.70;49.90;;;;;;4974429;28;20077;-66
2022/08/27 08:00:59;;;;;;;4.18;1.67;;;23.70;49.90;;;;;;4985788;28;20042;-66
2022/08/27 08:03:26;;;;;;;4.35;1.17;;;23.70;49.50;;;;;;4982253;28;20162;-66
2022/08/27 08:05:53;;;;;;;4.78;1.40;;;23.60;49.60;;;;;;4988994;28;20045;-66
2022/08/27 08:08:20;;;;;;;3.95;1.10;;;23.50;49.60;;;;;;4987792;28;20042;-66
2022/08/27 08:10:48;;;;;;;4.88;1.73;;;23.40;50.00;;;;;;4982499;28;20500;-66
2022/08/27 08:13:18;;;;;;;4.00;1.05;;;23.40;50.50;;;;;;4989129;28;20121;-65
2022/08/27 08:15:45;;;;;;;6.65;1.60;;;23.30;50.60;;;;;;4980726;28;20402;-65
2022/08/27 08:18:11;;;;;;;4.65;1.30;;;23.20;50.50;;;;;;4988451;28;20047;-65
2022/08/27 08:20:36;;;;;;;5.88;1.40;;;23.10;50.60;;;;;;4990538;28;20033;-65
2022/08/27 08:23:02;;;;;;;5.43;1.40;;;23.00;51.00;;;;;;4986972;28;20475;-65
2022/08/27 08:25:29;;;;;;;4.00;1.30;;;22.90;51.20;;;;;;4977941;28;20432;-67
2022/08/27 08:27:54;;;;;;;4.53;1.45;;;22.90;52.00;;;;;;5005940;28;20047;-67
2022/08/27 08:30:21;;;;;;;10.20;2.40;;;22.80;51.80;;;;;;4987625;28;20049;-67
2022/08/27 08:32:47;;;;;;;5.78;1.50;;;22.80;51.60;;;;;;4985204;28;20371;-67
2022/08/27 08:35:12;;;;;;;5.57;1.58;;;22.70;51.40;;;;;;4991104;28;20073;-67
2022/08/27 08:37:41;;;;;;;13.18;1.65;;;22.60;51.50;;;;;;4992772;28;20057;-67
2022/08/27 08:40:07;;;;;;;7.65;1.58;;;22.50;51.60;;;;;;4988081;28;20117;-67
2022/08/27 08:42:42;;;;;;;4.45;1.23;;;22.40;52.00;;;;;;4991030;28;20046;-67
2022/08/27 08:45:10;;;;;;;3.92;1.40;;;22.40;52.20;;;;;;4993205;28;20042;-67
2022/08/27 08:47:42;;;;;;;6.90;2.08;;;22.30;52.20;;;;;;4993342;28;20042;-67
2022/08/27 08:50:49;;;;;;;8.23;1.65;;;22.30;52.30;;;;;;4981957;28;20486;-67
2022/08/27 08:53:18;;;;;;;5.70;1.88;;;22.20;52.50;;;;;;4978238;28;20090;-67
2022/08/27 08:55:53;;;;;;;5.13;1.48;;;22.00;52.60;;;;;;4992187;28;20133;-68
2022/08/27 08:58:31;;;;;;;4.28;1.40;;;21.90;52.60;;;;;;4984271;28;20056;-67
2022/08/27 09:00:59;;;;;;;5.45;1.25;;;21.80;52.80;;;;;;4973782;28;20038;-67
2022/08/27 09:03:27;;;;;;;6.85;1.83;;;21.80;53.40;;;;;;4973218;28;20050;-68
2022/08/27 09:06:04;;;;;;;6.95;1.70;;;21.70;53.60;;;;;;4989080;28;20030;-67
2022/08/27 09:08:39;;;;;;;4.78;1.48;;;21.70;53.70;;;;;;4983740;28;20074;-67
2022/08/27 09:11:10;;;;;;;3.95;1.50;;;21.70;54.30;;;;;;4982536;28;20495;-67
2022/08/27 09:13:54;;;;;;;3.85;1.25;;;21.70;54.00;;;;;;4980302;28;20093;-68
2022/08/27 09:16:21;;;;;;;4.82;1.40;;;21.80;53.90;;;;;;4981569;28;20046;-68
2022/08/27 09:18:48;;;;;;;4.15;1.27;;;21.80;53.90;;;;;;4989535;28;20141;-68
2022/08/27 09:21:40;;;;;;;5.57;1.40;;;21.80;53.90;;;;;;4986778;28;20034;-68
2022/08/27 09:24:25;;;;;;;5.45;1.27;;;21.90;53.70;;;;;;4980958;28;20561;-68
2022/08/27 09:26:51;;;;;;;5.38;1.38;;;21.90;53.30;;;;;;4991067;28;20042;-67
2022/08/27 09:29:18;;;;;;;7.30;2.20;;;21.80;53.10;;;;;;4989821;28;20101;-67
2022/08/27 09:31:57;;;;;;;4.40;1.40;;;21.80;53.20;;;;;;4991705;28;20038;-68
2022/08/27 09:34:26;;;;;;;7.78;1.52;;;21.80;53.20;;;;;;4988231;28;20060;-68
2022/08/27 09:37:01;;;;;;;9.43;1.45;;;21.80;53.20;;;;;;4987693;28;20494;-67
2022/08/27 09:39:47;;;;;;;6.72;1.30;;;21.70;53.10;;;;;;4983345;28;20388;-68
2022/08/27 09:42:39;;;;;;;6.53;1.50;;;21.70;53.20;;;;;;4972545;28;20046;-68
2022/08/27 09:45:20;;;;;;;5.78;1.35;;;21.70;53.00;;;;;;5003247;28;20050;-69
2022/08/27 09:48:01;;;;;;;6.57;1.42;;;21.70;52.80;;;;;;4991860;28;20034;-71
2022/08/27 09:50:52;;;;;;;8.23;1.45;;;21.70;52.40;;;;;;4982351;28;20517;-70
2022/08/27 09:53:39;;;;;;;6.40;1.48;;;21.60;52.20;;;;;;4979590;28;20446;-72
2022/08/27 09:56:07;;;;;;;6.13;1.20;;;21.60;52.20;;;;;;4985147;28;20051;-71
2022/08/27 09:58:42;;;;;;;4.30;1.10;;;21.60;52.10;;;;;;4983075;28;20043;-70
2022/08/27 10:01:24;;;;;;;5.80;1.60;;;21.60;52.30;;;;;;4976765;28;20546;-71
2022/08/27 10:04:01;;;;;;;6.32;1.20;;;21.60;52.30;;;;;;4974515;28;20507;-71
2022/08/27 10:06:30;;;;;;;5.15;1.30;;;21.60;52.10;;;;;;4980463;28;20047;-71
2022/08/27 10:09:12;;;;;;;5.70;1.20;;;21.70;51.90;;;;;;4984033;28;20049;-70
2022/08/27 10:12:08;;;;;;;5.15;1.05;;;21.80;51.30;;;;;;4975896;28;20118;-70
2022/08/27 10:14:40;;;;;;;6.18;1.35;;;21.80;51.20;;;;;;4979292;28;20050;-70
2022/08/27 10:17:17;;;;;;;7.25;1.30;;;21.90;51.30;;;;;;4979775;28;20039;-70
2022/08/27 10:19:58;;;;;;;4.50;1.38;;;22.00;51.20;;;;;;4967951;28;20042;-71
2022/08/27 10:22:37;;;;;;;3.80;1.30;;;22.10;50.90;;;;;;4988577;28;20569;-70
2022/08/27 10:25:30;;;;;;;8.93;1.88;;;22.20;51.20;;;;;;4995195;28;20097;-71
2022/08/27 10:28:01;;;;;;;5.03;1.40;;;22.20;50.00;;;;;;4976429;28;20046;-70
2022/08/27 10:30:51;;;;;;;7.15;1.88;;;22.20;50.30;;;;;;4987311;28;20462;-70
2022/08/27 10:33:24;;;;;;;4.63;1.05;;;22.30;50.30;;;;;;4991441;28;20125;-70
2022/08/27 10:36:37;;;;;;;6.75;1.40;;;22.40;50.20;;;;;;4975735;28;20521;-70
2022/08/27 10:39:22;;;;;;;5.07;1.50;;;22.40;50.50;;;;;;4980264;28;20061;-70
2022/08/27 10:41:59;;;;;;;4.28;1.38;;;22.50;50.10;;;;;;4979812;28;20054;-70
2022/08/27 10:44:30;;;;;;;5.22;1.38;;;22.50;50.20;;;;;;4986519;28;20064;-70
2022/08/27 10:47:03;;;;;;;4.13;1.13;;;22.50;50.70;;;;;;4994645;28;20038;-70
2022/08/27 10:49:43;;;;;;;5.97;1.50;;;22.50;50.40;;;;;;4995367;28;20046;-70
2022/08/27 10:52:21;;;;;;;7.47;1.50;;;22.60;50.50;;;;;;4977512;28;20043;-70
2022/08/27 10:54:49;;;;;;;5.10;1.30;;;22.60;50.20;;;;;;4979490;28;20070;-70
2022/08/27 10:57:26;;;;;;;3.63;1.00;;;22.60;49.90;;;;;;4984022;28;20043;-68
2022/08/27 11:00:19;;;;;;;4.25;1.60;;;22.60;49.90;;;;;;4984521;28;20092;-68
2022/08/27 11:03:07;;;;;;;7.55;1.60;;;22.70;50.10;;;;;;4974794;28;20490;-68
2022/08/27 11:05:44;;;;;;;5.82;1.40;;;22.70;49.90;;;;;;4990410;28;20505;-68
2022/08/27 11:08:27;;;;;;;5.78;1.40;;;22.70;50.10;;;;;;4988297;28;20046;-69
2022/08/27 11:11:04;;;;;;;8.98;2.60;;;22.70;50.00;;;;;;4987713;28;20090;-70
2022/08/27 11:13:39;;;;;;;6.97;2.90;;;22.70;50.30;;;;;;4983790;28;20097;-70
2022/08/27 11:16:23;;;;;;;5.70;1.55;;;22.60;50.20;;;;;;4986180;28;20077;-70
2022/08/27 11:19:13;;;;;;;5.80;1.20;;;22.70;50.20;;;;;;4976502;28;20089;-70
2022/08/27 11:21:45;;;;;;;16.75;4.82;;;22.70;50.20;;;;;;4982948;28;20130;-70
2022/08/27 11:24:25;;;;;;;7.75;1.77;;;22.70;50.40;;;;;;4979448;28;20039;-70
2022/08/27 11:26:57;;;;;;;11.02;3.20;;;22.70;49.60;;;;;;4974822;28;20050;-70
2022/08/27 11:29:36;;;;;;;5.03;1.20;;;22.70;49.70;;;;;;4988916;28;20039;-70
2022/08/27 11:32:30;;;;;;;8.77;3.13;;;22.70;49.50;;;;;;4982368;28;20490;-70
2022/08/27 11:35:08;;;;;;;5.40;2.08;;;22.70;49.20;;;;;;4967473;28;20714;-71
2022/08/27 11:38:12;;;;;;;7.00;1.50;;;22.60;49.70;;;;;;5006474;28;20058;-71
2022/08/27 11:41:13;;;;;;;8.60;1.20;;;22.60;49.60;;;;;;5009683;28;20049;-71
2022/08/27 11:43:41;;;;;;;7.20;1.92;;;22.60;49.50;;;;;;4975366;28;20038;-71
2022/08/27 11:46:08;;;;;;;6.47;1.25;;;22.50;49.50;;;;;;4978418;28;20030;-71
2022/08/27 11:48:42;;;;;;;3.05;1.10;;;22.50;49.50;;;;;;4969312;28;20173;-70
2022/08/27 11:51:29;;;;;;;4.25;1.17;;;22.60;49.50;;;;;;4974442;28;20043;-71
2022/08/27 11:54:23;;;;;;;8.85;1.20;;;22.60;50.00;;;;;;4974158;28;20062;-70
2022/08/27 11:56:50;;;;;;;5.55;1.55;;;22.60;50.20;;;;;;4981236;28;20054;-69
2022/08/27 11:59:28;;;;;;;7.93;1.90;;;22.60;50.50;;;;;;4986078;28;20068;-69
2022/08/27 12:01:58;;;;;;;4.55;1.25;;;22.70;50.20;;;;;;4988304;28;20049;-69
2022/08/27 12:04:30;;;;;;;7.57;1.88;;;22.80;49.80;;;;;;4986768;28;20042;-69
2022/08/27 12:07:08;;;;;;;4.43;1.08;;;22.80;49.40;;;;;;4988946;28;20034;-70
2022/08/27 12:09:58;;;;;;;6.13;1.52;;;22.80;48.70;;;;;;4989730;28;20533;-70
2022/08/27 12:12:32;;;;;;;3.80;0.93;;;22.80;49.10;;;;;;4989367;28;20121;-70
2022/08/27 12:15:10;;;;;;;5.43;1.45;;;22.80;48.80;;;;;;4987295;28;20078;-71
2022/08/27 12:17:50;;;;;;;4.63;1.05;;;22.80;48.80;;;;;;4988313;28;20393;-71
2022/08/27 12:20:53;;;;;;;4.30;1.23;;;22.80;48.60;;;;;;4987019;28;20112;-71
2022/08/27 12:23:39;;;;;;;5.22;1.25;;;22.80;49.00;;;;;;4951858;28;20069;-70
2022/08/27 12:26:29;;;;;;;6.00;1.35;;;22.80;48.40;;;;;;5005026;28;20504;-70
2022/08/27 12:29:37;;;;;;;6.90;1.10;;;22.70;47.90;;;;;;4987695;28;20481;-70
2022/08/27 12:32:08;;;;;;;3.72;1.00;;;22.70;48.10;;;;;;4980113;28;20042;-70
2022/08/27 12:34:43;;;;;;;7.85;0.98;;;22.60;48.00;;;;;;4986417;28;20038;-70
2022/08/27 12:37:11;;;;;;;5.75;0.80;;;22.70;47.70;;;;;;4988255;28;20107;-70
2022/08/27 12:39:42;;;;;;;4.97;1.17;;;22.60;48.40;;;;;;4987770;28;20113;-71
2022/08/27 12:42:14;;;;;;;4.78;1.10;;;22.70;49.00;;;;;;4972109;28;20054;-71
2022/08/27 12:44:39;;;;;;;8.48;1.83;;;22.80;49.10;;;;;;4986980;28;20051;-71
2022/08/27 12:47:10;;;;;;;5.18;0.82;;;22.80;48.00;;;;;;4988196;28;20092;-68
2022/08/27 12:49:48;;;;;;;3.58;0.82;;;22.80;47.90;;;;;;4989018;28;20034;-68
2022/08/27 12:52:19;;;;;;;3.95;1.20;;;22.80;47.90;;;;;;4988245;28;20049;-70
2022/08/27 12:54:59;;;;;;;6.95;1.35;;;22.90;47.10;;;;;;4987824;28;20054;-70
2022/08/27 12:57:55;;;;;;;4.47;0.93;;;23.00;47.10;;;;;;4986447;28;20046;-70
2022/08/27 13:00:21;;;;;;;3.95;1.00;;;23.00;47.40;;;;;;4965498;28;20050;-71
2022/08/27 13:03:06;;;;;;;6.63;1.27;;;23.00;47.10;;;;;;4989573;28;20050;-71
2022/08/27 13:05:47;;;;;;;6.43;1.20;;;22.90;47.10;;;;;;4987097;28;20133;-71
2022/08/27 13:08:28;;;;;;;5.28;1.08;;;22.90;47.40;;;;;;4988450;28;20065;-71
2022/08/27 13:10:56;;;;;;;3.58;0.93;;;22.90;48.00;;;;;;4969365;28;20054;-71
2022/08/27 13:13:24;;;;;;;6.10;1.13;;;22.90;48.10;;;;;;4987319;28;20042;-71
2022/08/27 13:16:00;;;;;;;5.50;1.92;;;22.90;48.00;;;;;;4987055;28;20120;-71
2022/08/27 13:18:26;;;;;;;5.28;1.08;;;23.00;48.30;;;;;;4988456;28;20050;-71